createdAt,value
2018-03-16T11:26:13.057Z,17.70
2018-03-16T11:28:41.428Z,18.10
2018-03-16T11:34:28.227Z,18.00
2018-03-16T11:36:57.125Z,16.50
2018-03-16T11:39:24.741Z,14.60
2018-03-16T11:41:55.642Z,12.80
2018-03-16T11:44:40.326Z,11.30
2018-03-16T11:47:25.025Z,10.10
2018-03-16T11:49:54.503Z,8.30
2018-03-16T11:52:22.182Z,8.30
2018-03-16T11:54:49.751Z,7.80
2018-03-16T11:57:17.334Z,7.40
2018-03-16T11:59:53.430Z,7.20
2018-03-16T12:02:21.014Z,6.90
2018-03-16T12:04:48.593Z,6.70
2018-03-16T12:07:16.182Z,6.60
2018-03-16T12:09:43.779Z,6.40
2018-03-16T12:12:11.352Z,6.30
2018-03-16T12:14:38.950Z,6.20
2018-03-16T12:17:06.500Z,6.10
2018-03-16T12:19:34.838Z,5.90
2018-03-16T12:22:02.429Z,5.90
2018-03-16T12:24:30.774Z,5.80
2018-03-16T12:26:58.359Z,5.80
2018-03-16T12:29:25.955Z,5.80
2018-03-16T12:31:53.527Z,5.80
2018-03-16T12:34:21.149Z,5.80
2018-03-16T12:36:48.701Z,5.80
2018-03-16T12:39:16.259Z,5.70
2018-03-16T12:41:44.610Z,5.60
2018-03-16T12:44:12.243Z,5.60
2018-03-16T12:46:40.663Z,5.60
2018-03-16T12:49:08.304Z,5.60
2018-03-16T12:51:42.155Z,5.60
2018-03-16T12:54:03.654Z,5.60
2018-03-16T12:56:32.074Z,5.50
2018-03-16T12:58:59.705Z,5.50
2018-03-16T13:01:28.051Z,5.60
2018-03-16T13:03:55.645Z,5.50
2018-03-16T13:06:24.013Z,5.60
2018-03-16T13:08:52.363Z,5.60
2018-03-16T13:11:19.967Z,5.60
2018-03-16T13:13:47.561Z,5.60
2018-03-16T13:16:15.137Z,5.60
2018-03-16T13:18:42.734Z,5.60
2018-03-16T13:21:10.339Z,5.50
2018-03-16T13:23:37.923Z,5.50
2018-03-16T13:26:05.513Z,5.50
2018-03-16T13:28:33.872Z,5.50
2018-03-16T13:31:01.460Z,5.50
2018-03-16T13:33:29.807Z,5.50
2018-03-16T13:35:57.420Z,5.40
2018-03-16T13:38:24.999Z,5.50
2018-03-16T13:40:53.347Z,5.40
2018-03-16T13:43:25.377Z,5.40
2018-03-16T13:46:04.127Z,5.40
2018-03-16T13:48:35.017Z,5.40
2018-03-16T13:51:07.365Z,5.40
2018-03-16T13:53:34.956Z,5.30
2018-03-16T13:56:02.546Z,5.30
2018-03-16T13:58:30.877Z,5.30
2018-03-16T14:01:02.638Z,5.20
2018-03-16T14:03:30.207Z,5.20
2018-03-16T14:05:57.808Z,5.20
2018-03-16T14:08:25.385Z,5.20
2018-03-16T14:10:52.978Z,5.30
2018-03-16T14:13:20.576Z,5.30
2018-03-16T14:15:48.975Z,5.30
2018-03-16T14:18:16.584Z,5.30
2018-03-16T14:20:44.158Z,5.30
2018-03-16T14:23:14.734Z,5.30
2018-03-16T14:25:53.435Z,5.20
2018-03-16T14:28:22.974Z,5.20
2018-03-16T14:31:02.508Z,5.20
2018-03-16T14:33:30.077Z,5.20
2018-03-16T14:35:57.632Z,5.20
2018-03-16T14:38:25.231Z,5.10
2018-03-16T14:43:51.337Z,5.10
2018-03-16T14:46:24.592Z,5.10
2018-03-16T14:48:59.851Z,5.10
2018-03-16T14:51:27.443Z,5.10
2018-03-16T14:53:56.222Z,5.00
2018-03-16T14:56:23.806Z,5.00
2018-03-16T14:58:51.377Z,5.00
2018-03-16T15:01:18.987Z,5.00
2018-03-16T15:03:46.537Z,5.00
2018-03-16T15:06:14.114Z,5.00
2018-03-16T15:08:41.697Z,5.10
2018-03-16T15:11:09.268Z,5.10
2018-03-16T15:13:36.877Z,5.00
2018-03-16T15:16:04.457Z,5.00
2018-03-16T15:18:32.039Z,5.00
2018-03-16T15:20:59.641Z,4.90
2018-03-16T15:23:27.979Z,4.90
2018-03-16T15:25:55.572Z,4.90
2018-03-16T15:28:23.132Z,4.90
2018-03-16T15:30:50.688Z,4.90
2018-03-16T15:33:19.407Z,4.80
2018-03-16T15:35:46.994Z,4.80
2018-03-16T15:38:14.622Z,4.80
2018-03-16T15:40:43.007Z,4.80
2018-03-16T15:43:10.639Z,4.70
2018-03-16T15:45:49.555Z,4.80
2018-03-16T15:48:34.880Z,4.70
2018-03-16T15:51:02.914Z,4.70
2018-03-16T15:53:30.531Z,4.80
2018-03-16T15:55:58.190Z,4.70
2018-03-16T15:58:25.818Z,4.60
2018-03-16T16:00:53.477Z,4.60
2018-03-16T16:03:21.160Z,4.60
2018-03-16T16:05:48.796Z,4.60
2018-03-16T16:08:16.432Z,4.60
2018-03-16T16:10:44.082Z,4.60
2018-03-16T16:13:12.489Z,4.50
2018-03-16T16:15:40.130Z,4.50
2018-03-16T16:18:08.542Z,4.50
2018-03-16T16:21:00.684Z,4.50
2018-03-16T16:23:28.266Z,4.50
2018-03-16T16:26:10.125Z,4.50
2018-03-16T16:28:37.721Z,4.50
2018-03-16T16:31:11.355Z,4.50
2018-03-16T16:33:49.853Z,4.50
2018-03-16T16:39:19.339Z,4.40
2018-03-16T16:41:46.939Z,4.40
2018-03-16T16:44:14.645Z,4.40
2018-03-16T16:46:42.214Z,4.40
2018-03-16T16:49:10.132Z,4.40
2018-03-16T16:51:37.702Z,4.40
2018-03-16T16:54:05.265Z,4.30
2018-03-16T16:56:33.635Z,4.30
2018-03-16T16:59:01.241Z,4.20
2018-03-16T17:01:28.836Z,4.30
2018-03-16T17:03:56.438Z,4.20
2018-03-16T17:06:24.780Z,4.20
2018-03-16T17:08:52.355Z,4.20
2018-03-16T17:13:27.154Z,4.20
2018-03-16T17:17:44.505Z,4.10
2018-03-16T17:20:12.083Z,4.10
2018-03-16T17:22:39.673Z,4.10
2018-03-16T17:25:07.248Z,4.10
2018-03-16T17:27:34.880Z,4.00
2018-03-16T17:30:13.311Z,4.00
2018-03-16T17:32:52.740Z,4.00
2018-03-16T17:35:21.385Z,4.00
2018-03-16T17:37:48.968Z,4.00
2018-03-16T17:40:17.299Z,4.00
2018-03-16T17:42:44.875Z,4.00
2018-03-16T17:45:12.446Z,4.00
2018-03-16T17:47:40.033Z,3.90
2018-03-16T17:50:07.641Z,3.90
2018-03-16T17:52:35.201Z,3.90
2018-03-16T17:55:02.741Z,3.90
2018-03-16T17:57:30.665Z,3.90
2018-03-16T17:59:58.251Z,3.90
2018-03-16T18:02:25.846Z,3.90
2018-03-16T18:04:53.427Z,3.90
2018-03-16T18:07:20.993Z,3.80
2018-03-16T18:09:48.973Z,3.70
2018-03-16T18:12:16.545Z,3.70
2018-03-16T18:14:44.900Z,3.70
2018-03-16T18:17:12.480Z,3.60
2018-03-16T18:19:40.800Z,3.60
2018-03-16T18:22:08.392Z,3.50
2018-03-16T18:24:35.996Z,3.60
2018-03-16T18:27:03.568Z,3.60
2018-03-16T18:29:31.125Z,3.50
2018-03-16T18:31:58.710Z,3.50
2018-03-16T18:34:26.278Z,3.60
2018-03-16T18:36:54.115Z,3.50
2018-03-16T18:39:21.687Z,3.60
2018-03-16T18:41:49.252Z,3.60
2018-03-16T18:44:16.809Z,3.60
2018-03-16T18:46:44.415Z,3.50
2018-03-16T18:49:12.620Z,3.50
2018-03-16T18:51:40.182Z,3.50
2018-03-16T18:54:07.770Z,3.50
2018-03-16T18:56:35.366Z,3.40
2018-03-16T18:59:03.734Z,3.40
2018-03-16T19:01:31.330Z,3.40
2018-03-16T19:03:58.886Z,3.40
2018-03-16T19:06:26.460Z,3.40
2018-03-16T19:08:54.295Z,3.40
2018-03-16T19:11:21.885Z,3.40
2018-03-16T19:14:08.075Z,3.40
2018-03-16T19:16:44.003Z,3.40
2018-03-16T19:19:12.355Z,3.40
2018-03-16T19:21:39.916Z,3.40
2018-03-16T19:24:09.641Z,3.40
2018-03-16T19:27:07.167Z,3.40
2018-03-16T19:29:40.860Z,3.40
2018-03-16T19:32:08.444Z,3.40
2018-03-16T19:34:36.002Z,3.40
2018-03-16T19:37:03.557Z,3.40
2018-03-16T19:39:31.136Z,3.30
2018-03-16T19:41:58.683Z,3.30
2018-03-16T19:44:26.238Z,3.30
2018-03-16T19:46:54.189Z,3.30
2018-03-16T19:49:21.758Z,3.30
2018-03-16T19:51:49.337Z,3.30
2018-03-16T19:54:16.927Z,3.30
2018-03-16T19:56:44.491Z,3.30
2018-03-16T19:59:12.058Z,3.30
2018-03-16T20:01:39.729Z,3.30
2018-03-16T20:04:07.373Z,3.20
2018-03-16T20:06:35.012Z,3.20
2018-03-16T20:09:03.378Z,3.10
2018-03-16T20:11:30.942Z,3.10
2018-03-16T20:13:58.896Z,3.10
2018-03-16T20:16:26.457Z,3.10
2018-03-16T20:18:54.075Z,3.10
2018-03-16T20:21:21.640Z,3.10
2018-03-16T20:23:49.204Z,3.00
2018-03-16T20:26:16.789Z,3.00
2018-03-16T20:28:44.358Z,3.00
2018-03-16T20:31:11.947Z,3.00
2018-03-16T20:33:40.303Z,2.90
2018-03-16T20:36:07.862Z,2.90
2018-03-16T20:38:35.452Z,2.90
2018-03-16T20:41:03.774Z,2.90
2018-03-16T20:43:31.360Z,2.90
2018-03-16T20:45:58.933Z,2.90
2018-03-16T20:48:27.269Z,2.90
2018-03-16T20:50:55.615Z,2.90
2018-03-16T20:53:23.187Z,2.90
2018-03-16T20:55:51.211Z,2.90
2018-03-16T20:58:18.782Z,2.90
2018-03-16T21:00:47.213Z,2.90
2018-03-16T21:03:14.809Z,2.90
2018-03-16T21:05:42.391Z,3.00
2018-03-16T21:08:10.753Z,3.00
2018-03-16T21:10:39.110Z,3.00
2018-03-16T21:13:06.680Z,2.90
2018-03-16T21:15:35.046Z,2.90
2018-03-16T21:18:02.627Z,2.90
2018-03-16T21:20:30.225Z,2.90
2018-03-16T21:22:57.800Z,2.90
2018-03-16T21:25:25.379Z,2.90
2018-03-16T21:27:52.966Z,2.90
2018-03-16T21:30:20.591Z,2.90
2018-03-16T21:32:48.246Z,2.80
2018-03-16T21:35:15.876Z,2.80
2018-03-16T21:37:43.523Z,2.90
2018-03-16T21:40:11.229Z,2.90
2018-03-16T21:42:38.934Z,2.80
2018-03-16T21:45:07.393Z,2.70
2018-03-16T21:47:35.042Z,2.70
2018-03-16T21:50:02.703Z,2.70
2018-03-16T21:52:30.361Z,2.70
2018-03-16T21:54:57.987Z,2.70
2018-03-16T21:57:25.688Z,2.60
2018-03-16T21:59:53.354Z,2.60
